Time;durP1;ratioP1;P1;durP2;ratioP2;P2;SDS_P1;SDS_P2;PMS_P1;PMS_P2;Temp;Humidity;BMP_temperature;BMP_pressure;BME280_temperature;BME280_humidity;BME280_pressure;Samples;Min_cycle;Max_cycle;Signal;HPM_P1;HPM_P2
2021/07/29 00:01:45;;;;;;;3.17;1.60;;;;;;;20.18;37.60;100685.50;3557468;40;20188;-71
2021/07/29 00:04:13;;;;;;;3.70;1.70;;;;;;;20.16;37.86;100685.72;3566759;40;20057;-71
2021/07/29 00:06:40;;;;;;;3.13;1.65;;;;;;;20.15;37.93;100700.66;3566518;40;20103;-72
2021/07/29 00:09:08;;;;;;;2.85;1.45;;;;;;;20.14;37.33;100700.88;3565996;40;20049;-72
2021/07/29 00:11:36;;;;;;;2.55;1.33;;;;;;;20.13;37.70;100704.69;3566173;40;20127;-71
2021/07/29 00:14:04;;;;;;;3.53;1.70;;;;;;;20.10;37.77;100703.16;3566256;40;20033;-72
2021/07/29 00:16:42;;;;;;;3.55;1.90;;;;;;;20.10;38.04;100702.31;3566418;40;20098;-71
2021/07/29 00:19:10;;;;;;;3.00;1.75;;;;;;;20.03;38.33;100685.56;3562970;40;20034;-72
2021/07/29 00:21:41;;;;;;;3.90;1.70;;;;;;;20.02;37.85;100677.44;3556681;40;20388;-72
2021/07/29 00:24:10;;;;;;;3.05;1.70;;;;;;;19.98;38.23;100681.69;3563546;40;20037;-71
2021/07/29 00:26:39;;;;;;;2.65;1.42;;;;;;;19.93;37.67;100668.38;3565639;40;20151;-71
2021/07/29 00:29:07;;;;;;;2.92;1.70;;;;;;;19.90;37.93;100661.34;3566028;40;20036;-72
2021/07/29 00:31:36;;;;;;;3.15;1.80;;;;;;;19.91;38.22;100662.19;3565681;40;20431;-71
2021/07/29 00:34:05;;;;;;;5.40;1.90;;;;;;;19.88;38.41;100660.66;3566217;40;20091;-71
2021/07/29 00:36:33;;;;;;;3.30;1.75;;;;;;;19.86;37.86;100667.47;3565463;40;20328;-72
2021/07/29 00:39:01;;;;;;;4.32;1.55;;;;;;;19.86;38.51;100668.31;3566214;40;20029;-71
2021/07/29 00:41:29;;;;;;;3.20;1.73;;;;;;;19.86;38.41;100687.75;3552343;40;20405;-71
2021/07/29 00:44:01;;;;;;;3.35;1.80;;;;;;;19.88;38.73;100710.63;3566209;40;20033;-71
2021/07/29 00:46:31;;;;;;;3.55;2.00;;;;;;;19.84;38.66;100716.78;3568047;40;20111;-70
2021/07/29 00:49:01;;;;;;;3.20;1.83;;;;;;;19.83;39.07;100709.53;3558357;40;20092;-69
2021/07/29 00:51:29;;;;;;;3.25;1.90;;;;;;;19.79;38.97;100714.59;3557585;40;20042;-70
2021/07/29 00:53:59;;;;;;;3.90;1.75;;;;;;;19.76;38.89;100706.66;3558085;40;20393;-70
2021/07/29 00:56:28;;;;;;;3.35;1.85;;;;;;;19.74;38.70;100708.78;3567024;40;20053;-70
2021/07/29 00:58:56;;;;;;;4.18;2.00;;;;;;;19.72;38.66;100705.34;3567892;40;20131;-71
2021/07/29 01:01:24;;;;;;;3.33;1.73;;;;;;;19.70;39.03;100693.56;3567433;40;20626;-70
2021/07/29 01:03:52;;;;;;;3.05;1.52;;;;;;;19.67;39.14;100679.22;3558160;40;20141;-70
2021/07/29 01:06:23;;;;;;;2.58;1.67;;;;;;;19.69;39.54;100688.19;3566292;40;20085;-70
2021/07/29 01:09:02;;;;;;;4.15;2.00;;;;;;;19.68;39.55;100692.06;3568133;40;20108;-70
2021/07/29 01:11:30;;;;;;;3.55;1.85;;;;;;;19.59;38.89;100690.44;3567361;40;20070;-70
2021/07/29 01:13:58;;;;;;;2.90;1.50;;;;;;;19.56;39.39;100691.69;3558069;40;20045;-70
2021/07/29 01:16:26;;;;;;;2.95;1.67;;;;;;;19.54;39.56;100679.91;3561692;40;20029;-70
2021/07/29 01:18:55;;;;;;;2.60;1.40;;;;;;;19.53;39.21;100681.84;3594588;23;20101;-76
2021/07/29 01:21:28;;;;;;;3.35;1.50;;;;;;;19.53;39.98;100689.31;3565887;40;20283;-78
2021/07/29 01:23:56;;;;;;;2.97;1.70;;;;;;;19.46;39.11;100685.56;3577843;40;20025;-78
2021/07/29 01:26:25;;;;;;;3.08;1.75;;;;;;;19.41;38.95;100686.16;3569420;40;20029;-77
2021/07/29 01:28:53;;;;;;;3.45;1.70;;;;;;;19.36;39.39;100676.66;3569194;40;20369;-78
2021/07/29 01:31:21;;;;;;;4.10;1.60;;;;;;;19.32;39.17;100669.81;3568078;40;20029;-77
2021/07/29 01:33:50;;;;;;;2.38;1.50;;;;;;;19.28;39.31;100668.47;3569057;40;20084;-77
2021/07/29 01:36:18;;;;;;;2.97;1.50;;;;;;;19.24;39.66;100662.47;3565155;40;20041;-77
2021/07/29 01:38:47;;;;;;;3.78;1.40;;;;;;;19.21;39.58;100662.84;3559282;40;20525;-78
2021/07/29 01:41:15;;;;;;;3.70;1.65;;;;;;;19.16;39.49;100657.03;3558204;40;20046;-77
2021/07/29 01:43:43;;;;;;;2.85;1.73;;;;;;;19.13;39.55;100655.50;3558235;40;20119;-77
2021/07/29 01:46:11;;;;;;;3.22;1.75;;;;;;;19.11;39.27;100656.72;3549501;40;20045;-77
2021/07/29 01:48:39;;;;;;;2.92;1.50;;;;;;;19.09;40.42;100656.09;3576648;40;20052;-77
2021/07/29 01:51:07;;;;;;;3.78;1.77;;;;;;;19.08;39.73;100658.00;3576919;40;20041;-76
2021/07/29 01:53:35;;;;;;;3.10;1.70;;;;;;;19.04;39.95;100653.88;3577960;40;20507;-77
2021/07/29 01:56:08;;;;;;;2.95;1.70;;;;;;;19.06;40.38;100653.69;3577477;40;20068;-81
2021/07/29 01:58:36;;;;;;;2.60;1.52;;;;;;;19.01;39.94;100654.28;3577303;40;20148;-77
2021/07/29 02:01:04;;;;;;;2.78;1.40;;;;;;;19.00;40.54;100649.78;3577532;40;20041;-76
2021/07/29 02:03:32;;;;;;;3.72;1.75;;;;;;;19.00;39.98;100647.00;3577598;40;20053;-76
2021/07/29 02:06:02;;;;;;;2.78;1.50;;;;;;;19.00;40.17;100649.78;3574176;40;20330;-76
2021/07/29 02:08:30;;;;;;;4.28;1.65;;;;;;;18.97;40.39;100638.22;3571534;40;20033;-76
2021/07/29 02:11:04;;;;;;;2.95;1.50;;;;;;;19.00;40.00;100648.94;3574351;40;20060;-76
2021/07/29 02:13:32;;;;;;;3.65;1.40;;;;;;;18.97;40.51;100654.84;3578380;40;20089;-76
2021/07/29 02:16:00;;;;;;;4.32;1.70;;;;;;;18.96;40.43;100647.56;3573156;40;20067;-77
2021/07/29 02:18:29;;;;;;;2.42;1.58;;;;;;;18.95;40.38;100652.25;3578251;40;20045;-76
2021/07/29 02:20:57;;;;;;;1.92;1.20;;;;;;;18.95;40.32;100663.34;3574849;40;20033;-76
2021/07/29 02:23:26;;;;;;;2.80;1.60;;;;;;;18.95;40.00;100662.47;3576800;40;20073;-76
2021/07/29 02:25:54;;;;;;;3.72;1.42;;;;;;;18.94;40.46;100647.75;3564263;40;20459;-76
2021/07/29 02:28:23;;;;;;;3.47;1.70;;;;;;;18.97;40.76;100658.47;3582122;40;20139;-76
2021/07/29 02:30:51;;;;;;;4.63;1.95;;;;;;;18.93;40.31;100651.59;3575470;40;20142;-75
2021/07/29 02:33:19;;;;;;;3.50;1.50;;;;;;;18.93;40.43;100647.97;3575881;40;20061;-77
2021/07/29 02:35:48;;;;;;;3.20;1.42;;;;;;;18.94;40.37;100657.97;3577104;40;20029;-75
2021/07/29 02:38:16;;;;;;;3.65;2.00;;;;;;;18.92;40.01;100655.44;3576515;40;20056;-76
2021/07/29 02:40:44;;;;;;;3.70;1.48;;;;;;;18.91;40.13;100652.84;3576889;40;20137;-76
2021/07/29 02:43:12;;;;;;;3.70;1.75;;;;;;;18.90;40.03;100653.88;3577281;40;20052;-75
2021/07/29 02:45:42;;;;;;;3.40;1.40;;;;;;;18.91;40.34;100658.38;3576769;40;20057;-75
2021/07/29 02:48:09;;;;;;;2.78;1.50;;;;;;;18.88;39.83;100664.31;3574059;40;20063;-76
2021/07/29 02:50:37;;;;;;;3.67;1.80;;;;;;;18.86;40.43;100663.63;3557943;40;20385;-75
2021/07/29 02:53:05;;;;;;;2.95;1.70;;;;;;;18.85;40.27;100661.94;3584226;40;20400;-75
2021/07/29 02:55:33;;;;;;;3.60;1.77;;;;;;;18.85;40.53;100664.72;3564150;40;20048;-75
2021/07/29 02:58:01;;;;;;;2.85;1.40;;;;;;;18.83;40.62;100653.81;3569770;40;20114;-75
2021/07/29 03:00:30;;;;;;;3.42;1.90;;;;;;;18.82;40.60;100654.84;3575166;40;20056;-75
2021/07/29 03:02:59;;;;;;;4.88;1.92;;;;;;;18.81;40.04;100650.34;3572921;40;20434;-75
2021/07/29 03:05:27;;;;;;;3.65;2.08;;;;;;;18.76;40.03;100653.69;3575267;40;20803;-75
2021/07/29 03:07:55;;;;;;;3.30;1.80;;;;;;;18.74;40.23;100654.91;3573745;40;20486;-75
2021/07/29 03:10:23;;;;;;;3.67;2.00;;;;;;;18.70;40.49;100648.88;3574217;40;20048;-75
2021/07/29 03:12:51;;;;;;;3.03;1.70;;;;;;;18.67;40.63;100654.81;3569530;40;20416;-76
2021/07/29 03:15:19;;;;;;;3.70;1.83;;;;;;;18.62;40.45;100657.28;3574474;40;20061;-75
2021/07/29 03:17:47;;;;;;;3.28;1.80;;;;;;;18.59;40.47;100660.44;3583518;40;20271;-75
2021/07/29 03:20:18;;;;;;;4.35;2.42;;;;;;;18.58;40.57;100663.41;3576453;40;20049;-76
2021/07/29 03:22:46;;;;;;;3.78;1.80;;;;;;;18.54;40.59;100664.81;3578179;40;20478;-75
2021/07/29 03:25:14;;;;;;;3.40;2.15;;;;;;;18.51;40.45;100663.31;3578463;40;20143;-75
2021/07/29 03:27:42;;;;;;;2.88;1.77;;;;;;;18.50;40.58;100663.50;3577766;40;20041;-75
2021/07/29 03:30:11;;;;;;;2.95;1.73;;;;;;;18.50;40.62;100664.34;3575431;40;20053;-75
2021/07/29 03:32:39;;;;;;;3.13;1.80;;;;;;;18.49;40.71;100670.09;3576483;40;20041;-75
2021/07/29 03:35:08;;;;;;;4.25;2.00;;;;;;;18.50;40.64;100666.25;3574549;40;20057;-75
2021/07/29 03:37:37;;;;;;;3.20;1.70;;;;;;;18.49;40.29;100668.16;3568282;40;20139;-75
2021/07/29 03:40:07;;;;;;;3.85;1.88;;;;;;;18.50;40.85;100672.66;3575336;40;20058;-75
2021/07/29 03:42:35;;;;;;;2.92;1.55;;;;;;;18.50;40.42;100669.03;3573406;40;20037;-75
2021/07/29 03:45:05;;;;;;;4.75;1.60;;;;;;;18.48;40.22;100677.53;3575542;40;20139;-75
2021/07/29 03:47:32;;;;;;;4.72;1.70;;;;;;;18.47;40.44;100675.81;3575991;40;20122;-75
2021/07/29 03:50:01;;;;;;;4.32;1.90;;;;;;;18.48;40.60;100676.66;3576796;40;20421;-74
2021/07/29 03:52:29;;;;;;;4.85;1.95;;;;;;;18.46;40.95;100676.84;3576439;40;20116;-75
2021/07/29 03:55:01;;;;;;;4.97;1.75;;;;;;;18.48;40.78;100671.13;3575461;40;20056;-75
2021/07/29 03:57:29;;;;;;;3.80;1.80;;;;;;;18.47;41.13;100672.16;3577687;40;20321;-75
2021/07/29 03:59:57;;;;;;;3.25;1.63;;;;;;;18.46;41.36;100674.06;3578856;40;20434;-75
2021/07/29 04:02:25;;;;;;;3.28;1.83;;;;;;;18.46;40.89;100668.53;3576774;40;20041;-75
2021/07/29 04:04:53;;;;;;;3.08;1.73;;;;;;;18.47;41.35;100674.94;3573159;40;20093;-75
2021/07/29 04:07:21;;;;;;;4.07;1.90;;;;;;;18.48;41.46;100682.19;3576500;40;20057;-75
2021/07/29 04:09:50;;;;;;;3.45;1.88;;;;;;;18.47;40.89;100677.72;3578615;40;20056;-75
2021/07/29 04:12:20;;;;;;;4.22;2.05;;;;;;;18.45;41.32;100684.28;3576997;40;20044;-75
2021/07/29 04:14:48;;;;;;;3.63;1.80;;;;;;;18.41;41.02;100682.09;3578639;40;20057;-75
2021/07/29 04:17:17;;;;;;;4.22;1.90;;;;;;;18.40;41.57;100674.84;3574591;40;20210;-75
2021/07/29 04:19:46;;;;;;;3.47;1.73;;;;;;;18.39;41.52;100681.41;3578377;40;20138;-75
2021/07/29 04:22:14;;;;;;;3.55;1.50;;;;;;;18.35;41.49;100683.72;3570902;40;20036;-75
2021/07/29 04:24:42;;;;;;;3.22;1.35;;;;;;;18.30;41.00;100682.53;3574781;40;20053;-75
2021/07/29 04:27:10;;;;;;;3.28;1.73;;;;;;;18.26;41.40;100686.75;3574506;40;20364;-75
2021/07/29 04:29:39;;;;;;;4.00;1.50;;;;;;;18.23;40.82;100687.97;3576520;40;20053;-76
2021/07/29 04:32:08;;;;;;;3.42;1.60;;;;;;;18.17;40.93;100693.41;3574676;39;20406;-77
2021/07/29 04:34:36;;;;;;;3.55;1.58;;;;;;;18.11;41.01;100700.56;3575701;40;20069;-75
2021/07/29 04:37:05;;;;;;;2.65;1.50;;;;;;;18.05;41.47;100693.84;3575662;40;20118;-77
2021/07/29 04:39:34;;;;;;;2.92;1.92;;;;;;;18.00;41.13;100700.94;3577450;40;20171;-75
2021/07/29 04:42:02;;;;;;;2.17;1.20;;;;;;;17.94;41.85;100708.09;3571431;40;20123;-75
2021/07/29 04:44:30;;;;;;;6.25;1.80;;;;;;;17.91;41.44;100713.13;3580002;40;20083;-76
2021/07/29 04:46:59;;;;;;;3.65;2.20;;;;;;;17.89;41.60;100707.75;3580439;40;20037;-77
2021/07/29 04:49:27;;;;;;;4.28;1.45;;;;;;;17.83;41.91;100702.97;3575991;40;20138;-76
2021/07/29 04:51:55;;;;;;;2.58;1.60;;;;;;;17.80;41.83;100705.22;3573865;40;20069;-75
2021/07/29 04:54:23;;;;;;;2.78;1.40;;;;;;;17.77;41.76;100711.16;3578111;40;20057;-76
2021/07/29 04:56:51;;;;;;;4.68;1.40;;;;;;;17.73;41.63;100715.31;3576703;40;20053;-76
2021/07/29 04:59:21;;;;;;;2.67;1.30;;;;;;;17.68;41.73;100713.09;3576880;40;20692;-75
2021/07/29 05:01:49;;;;;;;3.28;1.65;;;;;;;17.66;42.29;100715.19;3572660;40;20317;-75
2021/07/29 05:04:19;;;;;;;3.10;1.38;;;;;;;17.66;41.71;100716.06;3576387;40;20057;-75
2021/07/29 05:06:47;;;;;;;2.85;1.30;;;;;;;17.62;42.02;100727.63;3565409;40;20044;-76
2021/07/29 05:09:15;;;;;;;2.72;1.35;;;;;;;17.62;42.54;100719.34;3565186;40;20064;-75
2021/07/29 05:11:43;;;;;;;3.70;1.48;;;;;;;17.62;42.37;100720.22;3577019;40;20390;-75
2021/07/29 05:14:11;;;;;;;4.10;1.50;;;;;;;17.61;42.07;100717.66;3578767;40;20394;-74
2021/07/29 05:16:39;;;;;;;3.42;1.50;;;;;;;17.61;42.81;100725.94;3579074;40;20053;-75
2021/07/29 05:19:07;;;;;;;2.38;1.42;;;;;;;17.62;42.66;100725.75;3575852;40;20044;-75
2021/07/29 05:21:36;;;;;;;4.35;1.60;;;;;;;17.64;42.10;100726.44;3564953;40;20037;-75
2021/07/29 05:24:05;;;;;;;3.60;1.40;;;;;;;17.65;42.90;100724.53;3581120;40;20107;-75
2021/07/29 05:26:33;;;;;;;3.55;1.50;;;;;;;17.67;42.32;100730.75;3577350;40;20049;-75
2021/07/29 05:29:01;;;;;;;3.78;1.60;;;;;;;17.67;42.59;100742.69;3575990;40;21303;-75
2021/07/29 05:31:29;;;;;;;3.70;1.30;;;;;;;17.72;42.70;100736.56;3563849;40;20386;-75
2021/07/29 05:33:57;;;;;;;3.55;1.50;;;;;;;17.73;42.67;100735.53;3577966;40;20322;-75
2021/07/29 05:36:25;;;;;;;3.03;1.40;;;;;;;17.78;42.57;100726.72;3563051;40;20613;-76
2021/07/29 05:38:54;;;;;;;3.15;1.35;;;;;;;17.82;42.20;100731.69;3570843;40;20127;-75
2021/07/29 05:41:22;;;;;;;1.77;1.23;;;;;;;17.84;42.74;100743.44;3567582;40;20185;-75
2021/07/29 05:43:50;;;;;;;3.90;1.55;;;;;;;17.88;42.74;100730.94;3567828;40;20066;-75
2021/07/29 05:46:18;;;;;;;4.00;1.40;;;;;;;17.92;42.65;100739.75;3570784;40;20037;-75
2021/07/29 05:48:46;;;;;;;3.83;1.58;;;;;;;17.96;42.51;100743.84;3576027;40;20056;-75
2021/07/29 05:51:18;;;;;;;3.63;1.40;;;;;;;17.95;41.95;100744.91;3572128;40;20049;-74
2021/07/29 05:53:47;;;;;;;3.00;1.20;;;;;;;17.97;42.48;100746.44;3577417;40;20278;-76
2021/07/29 05:56:16;;;;;;;3.15;1.38;;;;;;;18.02;42.30;100745.91;3572652;40;20087;-75
2021/07/29 05:58:45;;;;;;;3.85;1.50;;;;;;;18.02;42.36;100738.47;3578479;40;20371;-75
2021/07/29 06:01:13;;;;;;;2.95;1.25;;;;;;;18.06;42.25;100741.75;3579985;39;20405;-76
2021/07/29 06:03:41;;;;;;;3.92;1.30;;;;;;;18.06;41.94;100750.91;3570531;40;20068;-76
2021/07/29 06:06:09;;;;;;;3.78;1.40;;;;;;;18.07;42.02;100743.47;3569919;40;20188;-75
2021/07/29 06:08:38;;;;;;;3.10;1.33;;;;;;;18.08;42.37;100747.09;3571383;40;20051;-75
2021/07/29 06:11:06;;;;;;;4.88;1.52;;;;;;;18.09;41.95;100735.00;3561584;40;20037;-75
2021/07/29 06:13:35;;;;;;;2.65;1.25;;;;;;;18.13;41.97;100742.72;3581201;40;20052;-74
2021/07/29 06:16:08;;;;;;;3.70;1.48;;;;;;;18.15;41.97;100746.19;3559013;40;20135;-74
2021/07/29 06:18:42;;;;;;;4.38;1.70;;;;;;;18.17;41.54;100743.25;3576568;40;20327;-73
2021/07/29 06:21:10;;;;;;;3.92;1.40;;;;;;;18.18;41.67;100748.59;3570267;40;20045;-73
2021/07/29 06:23:38;;;;;;;2.45;1.23;;;;;;;18.21;41.78;100755.66;3572209;40;20053;-75
2021/07/29 06:26:06;;;;;;;7.05;1.45;;;;;;;18.25;42.22;100757.03;3558034;40;20503;-73
2021/07/29 06:28:36;;;;;;;3.70;1.42;;;;;;;18.31;42.30;100759.03;3566176;40;20060;-74
2021/07/29 06:31:04;;;;;;;2.47;1.40;;;;;;;18.35;42.37;100754.88;3573645;40;20127;-74
2021/07/29 06:33:32;;;;;;;3.15;1.35;;;;;;;18.40;42.33;100757.94;3572958;40;20892;-73
2021/07/29 06:36:03;;;;;;;4.20;1.60;;;;;;;18.45;42.21;100758.22;3573175;40;20081;-74
2021/07/29 06:38:32;;;;;;;3.30;1.50;;;;;;;18.51;42.22;100759.41;3574996;40;20059;-75
2021/07/29 06:41:00;;;;;;;5.13;1.55;;;;;;;18.57;42.17;100759.50;3559300;40;20064;-74
2021/07/29 06:43:28;;;;;;;3.13;1.45;;;;;;;18.65;41.73;100761.34;3579299;40;20348;-73
2021/07/29 06:46:02;;;;;;;4.57;1.63;;;;;;;18.75;41.98;100771.13;3574317;40;20041;-73
2021/07/29 06:48:32;;;;;;;5.05;1.30;;;;;;;18.84;42.19;100776.59;3576348;40;21134;-75
2021/07/29 06:51:03;;;;;;;3.72;1.40;;;;;;;18.92;42.04;100768.22;3561004;40;20052;-74
2021/07/29 06:53:32;;;;;;;3.15;1.13;;;;;;;19.04;41.42;100769.44;3581892;40;20155;-74
2021/07/29 06:56:00;;;;;;;7.07;1.50;;;;;;;19.15;41.03;100772.63;3576003;40;20041;-73
2021/07/29 06:58:28;;;;;;;2.92;1.30;;;;;;;19.27;40.78;100769.34;3573279;40;20150;-75
2021/07/29 07:01:01;;;;;;;2.95;1.30;;;;;;;19.40;40.21;100775.97;3575546;40;20047;-73
2021/07/29 07:03:29;;;;;;;5.03;1.70;;;;;;;19.47;40.32;100776.91;3572422;40;20135;-74
2021/07/29 07:06:00;;;;;;;2.95;1.40;;;;;;;19.54;39.94;100774.25;3574679;40;20047;-73
2021/07/29 07:08:28;;;;;;;3.30;1.15;;;;;;;19.60;40.13;100778.16;3575834;40;20057;-74
2021/07/29 07:10:56;;;;;;;2.90;1.10;;;;;;;19.65;40.20;100771.00;3565042;40;20028;-75
2021/07/29 07:13:24;;;;;;;3.83;1.20;;;;;;;19.72;39.49;100776.63;3584431;40;20053;-74
2021/07/29 07:15:52;;;;;;;5.38;1.73;;;;;;;19.77;39.69;100779.66;3575187;40;20044;-73
2021/07/29 07:18:22;;;;;;;2.50;1.40;;;;;;;19.82;39.08;100780.81;3573922;40;20123;-74
2021/07/29 07:20:50;;;;;;;3.97;1.15;;;;;;;19.84;38.81;100784.25;3577725;40;20053;-74
2021/07/29 07:23:18;;;;;;;2.58;1.20;;;;;;;19.87;38.80;100783.00;3576065;40;20056;-74
2021/07/29 07:25:46;;;;;;;2.20;1.05;;;;;;;19.86;38.68;100790.47;3572615;40;20410;-73
2021/07/29 07:28:14;;;;;;;4.72;1.50;;;;;;;19.87;38.29;100785.78;3575044;40;20445;-72
2021/07/29 07:30:42;;;;;;;2.78;1.27;;;;;;;19.87;37.85;100783.88;3579322;40;20083;-74
2021/07/29 07:33:10;;;;;;;3.15;1.15;;;;;;;19.84;38.35;100792.56;3576905;40;20056;-73
2021/07/29 07:35:39;;;;;;;2.53;1.27;;;;;;;19.87;38.02;100792.19;3562673;40;20429;-73
2021/07/29 07:38:07;;;;;;;2.90;1.10;;;;;;;19.85;38.25;100799.84;3584144;40;20053;-72
2021/07/29 07:40:36;;;;;;;3.97;1.27;;;;;;;19.87;38.24;100799.66;3576331;40;20129;-73
2021/07/29 07:43:05;;;;;;;4.10;1.40;;;;;;;19.89;37.84;100801.19;3573083;40;20049;-73
2021/07/29 07:45:35;;;;;;;3.78;1.30;;;;;;;19.91;37.68;100804.66;3573523;39;20402;-73
2021/07/29 07:48:06;;;;;;;3.53;1.30;;;;;;;19.93;36.74;100802.50;3576322;40;20059;-74
2021/07/29 07:50:34;;;;;;;2.45;1.40;;;;;;;19.90;37.41;100799.28;3573932;40;20053;-73
2021/07/29 07:53:05;;;;;;;4.40;1.40;;;;;;;19.88;36.86;100809.72;3578121;40;20074;-74
2021/07/29 07:55:35;;;;;;;2.47;1.30;;;;;;;19.85;36.50;100799.84;3574463;40;20061;-75
2021/07/29 07:58:03;;;;;;;3.33;1.80;;;;;;;19.80;36.68;100809.81;3575245;40;20060;-75
2021/07/29 08:00:31;;;;;;;3.45;1.38;;;;;;;19.74;36.70;100802.28;3571900;40;20049;-76
2021/07/29 08:02:59;;;;;;;3.08;1.17;;;;;;;19.69;36.80;100797.28;3582787;40;20490;-73
2021/07/29 08:05:27;;;;;;;3.75;1.40;;;;;;;19.65;37.16;100790.44;3573632;40;20053;-73
2021/07/29 08:07:57;;;;;;;3.35;1.20;;;;;;;19.61;37.17;100797.41;3559150;40;20095;-73
2021/07/29 08:10:28;;;;;;;4.28;1.50;;;;;;;19.61;36.33;100811.28;3572664;40;20423;-73
2021/07/29 08:12:56;;;;;;;3.53;1.25;;;;;;;19.57;36.91;100790.53;3571935;40;20041;-73
2021/07/29 08:15:23;;;;;;;3.00;1.13;;;;;;;19.52;37.31;100804.09;3578387;40;20056;-72
2021/07/29 08:17:51;;;;;;;3.60;1.40;;;;;;;19.51;37.22;100794.91;3575258;40;20053;-73
2021/07/29 08:20:22;;;;;;;3.38;1.20;;;;;;;19.49;37.11;100804.47;3576708;40;20140;-74
2021/07/29 08:22:50;;;;;;;3.90;1.27;;;;;;;19.48;36.96;100806.38;3574196;40;20068;-73
2021/07/29 08:25:19;;;;;;;5.07;1.60;;;;;;;19.50;37.30;100808.97;3575340;40;20049;-73
2021/07/29 08:27:49;;;;;;;3.60;1.20;;;;;;;19.53;37.47;100789.19;3574432;40;20395;-72
2021/07/29 08:30:18;;;;;;;3.70;1.30;;;;;;;19.52;37.08;100779.13;3578382;40;20044;-72
2021/07/29 08:32:46;;;;;;;3.55;1.20;;;;;;;19.56;37.58;100788.81;3575304;39;20033;-73
2021/07/29 08:35:14;;;;;;;2.67;1.20;;;;;;;19.61;37.61;100791.84;3575215;40;20141;-74
2021/07/29 08:37:45;;;;;;;4.45;1.55;;;;;;;19.69;37.41;100782.56;3565034;40;20085;-73
2021/07/29 08:40:17;;;;;;;3.28;1.67;;;;;;;19.81;36.39;100794.91;3573735;40;20057;-74
2021/07/29 08:42:45;;;;;;;2.97;1.23;;;;;;;19.81;36.58;100792.13;3574888;40;20309;-74
2021/07/29 08:45:22;;;;;;;2.63;1.13;;;;;;;19.90;36.59;100791.81;3576136;40;20061;-74
2021/07/29 08:47:56;;;;;;;2.65;1.35;;;;;;;19.90;36.35;100780.72;3573734;40;20122;-75
2021/07/29 08:50:24;;;;;;;2.92;1.17;;;;;;;19.99;36.53;100794.47;3577956;40;20140;-75
2021/07/29 08:52:54;;;;;;;3.55;1.17;;;;;;;20.05;36.65;100800.09;3577165;40;20048;-75
2021/07/29 08:55:26;;;;;;;3.30;1.20;;;;;;;20.12;36.68;100805.72;3575454;40;20402;-74
2021/07/29 08:57:54;;;;;;;2.60;1.00;;;;;;;20.19;36.51;100803.88;3569591;40;20064;-74
2021/07/29 09:00:24;;;;;;;3.15;1.20;;;;;;;20.29;36.53;100812.78;3577501;40;20394;-75
2021/07/29 09:02:54;;;;;;;3.92;1.35;;;;;;;20.39;36.32;100806.91;3573920;40;20127;-73
2021/07/29 09:05:28;;;;;;;4.25;1.30;;;;;;;20.45;36.07;100804.19;3576075;40;20045;-74
2021/07/29 09:08:04;;;;;;;2.33;1.10;;;;;;;20.57;35.35;100804.53;3571119;40;20045;-72
2021/07/29 09:10:33;;;;;;;2.58;1.20;;;;;;;20.63;35.46;100803.72;3575315;40;20048;-74
2021/07/29 09:13:11;;;;;;;3.92;1.42;;;;;;;20.75;35.31;100806.84;3571703;40;21765;-73
2021/07/29 09:15:41;;;;;;;4.30;1.13;;;;;;;20.78;35.05;100796.16;3570638;40;20065;-73
2021/07/29 09:18:10;;;;;;;2.63;1.10;;;;;;;20.81;35.21;100798.56;3575543;40;20398;-73
2021/07/29 09:20:38;;;;;;;3.15;1.10;;;;;;;20.86;35.45;100809.91;3565681;40;20053;-73
2021/07/29 09:23:16;;;;;;;2.60;1.10;;;;;;;20.98;35.32;100808.34;3582186;40;20052;-73
2021/07/29 09:25:46;;;;;;;4.22;1.27;;;;;;;21.05;35.65;100802.84;3563541;40;20057;-72
2021/07/29 09:28:37;;;;;;;4.75;1.20;;;;;;;21.17;34.79;100805.91;3583530;40;20052;-72
2021/07/29 09:31:20;;;;;;;2.20;1.20;;;;;;;21.28;34.58;100805.34;3562421;40;20052;-73
2021/07/29 09:33:56;;;;;;;3.28;1.05;;;;;;;21.34;34.02;100808.16;3573499;40;20041;-73
2021/07/29 09:36:25;;;;;;;3.17;1.40;;;;;;;21.39;34.51;100808.44;3571444;40;20084;-71
2021/07/29 09:38:56;;;;;;;4.43;1.60;;;;;;;21.46;34.45;100805.69;3572875;40;20067;-73
2021/07/29 09:41:27;;;;;;;3.30;1.23;;;;;;;21.53;34.38;100811.28;3560962;40;20475;-72
2021/07/29 09:43:55;;;;;;;3.33;1.38;;;;;;;21.58;33.76;100817.97;3578812;40;20082;-72
2021/07/29 09:46:25;;;;;;;3.08;1.25;;;;;;;21.65;33.12;100820.81;3574986;40;20045;-72
2021/07/29 09:48:54;;;;;;;3.20;1.30;;;;;;;21.64;33.07;100825.53;3577395;40;20574;-74
2021/07/29 09:51:24;;;;;;;3.53;1.20;;;;;;;21.63;32.92;100825.72;3563109;40;20053;-74
2021/07/29 09:53:55;;;;;;;3.90;1.30;;;;;;;21.61;32.88;100814.78;3581347;40;20067;-74
2021/07/29 09:56:23;;;;;;;3.90;1.30;;;;;;;21.55;33.08;100825.84;3572023;40;20049;-75
2021/07/29 09:59:11;;;;;;;3.83;1.30;;;;;;;21.50;33.08;100822.81;3573625;40;20404;-74
2021/07/29 10:01:40;;;;;;;4.80;1.60;;;;;;;21.49;32.83;100812.75;3574076;40;20029;-74
2021/07/29 10:04:09;;;;;;;4.03;1.30;;;;;;;21.44;32.82;100813.38;3575947;40;20181;-73
2021/07/29 10:06:40;;;;;;;3.45;1.40;;;;;;;21.42;32.93;100816.34;3571740;40;20487;-72
2021/07/29 10:09:13;;;;;;;3.28;1.52;;;;;;;21.43;33.16;100820.00;3571083;40;20049;-73
2021/07/29 10:11:46;;;;;;;2.85;1.42;;;;;;;21.42;33.17;100813.56;3554182;40;20059;-73
2021/07/29 10:14:14;;;;;;;5.05;1.40;;;;;;;21.44;33.75;100814.22;3574347;40;20048;-74
2021/07/29 10:16:47;;;;;;;2.97;1.40;;;;;;;21.52;33.38;100810.41;3561681;40;20033;-73
2021/07/29 10:19:16;;;;;;;2.60;1.30;;;;;;;21.54;32.99;100810.22;3576352;40;20116;-73
2021/07/29 10:21:44;;;;;;;2.83;1.23;;;;;;;21.58;33.52;100809.63;3563763;40;20033;-73
2021/07/29 10:24:14;;;;;;;3.28;1.48;;;;;;;21.62;33.09;100810.06;3574757;40;20061;-73
2021/07/29 10:27:13;;;;;;;3.10;1.30;;;;;;;21.64;32.85;100811.59;3573959;40;20052;-73
2021/07/29 10:29:41;;;;;;;2.20;1.30;;;;;;;21.64;32.89;100805.16;3575089;40;20045;-73
2021/07/29 10:32:11;;;;;;;3.28;1.20;;;;;;;21.69;32.76;100809.03;3567833;40;20072;-73
2021/07/29 10:34:40;;;;;;;2.92;1.30;;;;;;;21.69;32.42;100786.75;3575870;40;20483;-73
2021/07/29 10:37:09;;;;;;;4.55;1.50;;;;;;;21.72;32.49;100819.78;3561421;40;20045;-74
2021/07/29 10:39:58;;;;;;;2.85;1.20;;;;;;;21.71;32.25;100804.13;3577157;40;20061;-74
2021/07/29 10:42:28;;;;;;;2.92;1.30;;;;;;;21.77;32.42;100810.78;3548339;40;20031;-73
2021/07/29 10:44:56;;;;;;;4.22;1.35;;;;;;;21.80;31.79;100805.69;3574597;40;20056;-72
2021/07/29 10:47:45;;;;;;;4.50;1.70;;;;;;;21.86;31.61;100808.69;3573050;39;20040;-73
2021/07/29 10:50:17;;;;;;;3.75;1.25;;;;;;;21.93;30.85;100796.50;3572338;40;20045;-73
2021/07/29 10:52:50;;;;;;;2.25;1.30;;;;;;;21.99;31.17;100801.22;3573935;40;20428;-72
2021/07/29 10:55:21;;;;;;;3.17;1.25;;;;;;;21.99;31.21;100803.16;3574295;40;20308;-73
2021/07/29 10:58:00;;;;;;;2.13;1.25;;;;;;;22.03;31.57;100798.91;3568804;40;20063;-73
2021/07/29 11:00:28;;;;;;;2.92;1.60;;;;;;;22.01;31.00;100799.09;3576516;40;20064;-73
2021/07/29 11:03:06;;;;;;;2.45;1.27;;;;;;;22.06;31.26;100791.00;3569967;40;20118;-73
2021/07/29 11:05:43;;;;;;;3.40;1.30;;;;;;;22.09;31.07;100798.91;3572607;40;20052;-73
2021/07/29 11:08:13;;;;;;;3.13;1.55;;;;;;;22.10;30.93;100809.00;3569520;40;20064;-73
2021/07/29 11:10:41;;;;;;;4.68;1.60;;;;;;;22.12;31.08;100808.78;3574974;40;20398;-73
2021/07/29 11:13:13;;;;;;;2.72;1.23;;;;;;;22.13;30.82;100805.81;3575078;40;20092;-73
2021/07/29 11:15:41;;;;;;;4.75;1.70;;;;;;;22.11;30.61;100802.34;3568537;40;20150;-73
2021/07/29 11:18:17;;;;;;;2.80;1.35;;;;;;;22.14;30.02;100806.66;3575625;40;20049;-73
2021/07/29 11:20:45;;;;;;;2.28;1.40;;;;;;;22.10;30.82;100803.41;3561996;40;20138;-73
2021/07/29 11:23:16;;;;;;;3.22;1.20;;;;;;;22.08;30.50;100804.69;3579504;40;20344;-73
2021/07/29 11:25:58;;;;;;;3.22;1.40;;;;;;;22.08;30.60;100811.13;3562134;40;20064;-72
2021/07/29 11:28:26;;;;;;;3.25;1.33;;;;;;;22.03;30.41;100807.25;3580733;40;21124;-72
2021/07/29 11:31:16;;;;;;;2.97;1.25;;;;;;;22.00;30.28;100802.94;3562344;40;20130;-74
2021/07/29 11:33:49;;;;;;;6.35;1.55;;;;;;;21.99;29.88;100811.50;3580085;40;20056;-73
2021/07/29 11:36:17;;;;;;;2.92;1.35;;;;;;;21.91;30.70;100806.97;3563110;40;20389;-74